Time,TemperatureF,DewpointF,PressureIn,WindDirection,WindDirectionDegrees,WindSpeedMPH,WindSpeedGustMPH,Humidity,HourlyPrecipIn,Conditions,Clouds,dailyrainin,SolarRadiationWatts/m^2,SoftwareType,DateUTC
2013-05-17 00:02:00,44.0,34.0,-100.00,WNW,283,40.0,46.0,68,0.00,,,0.00,0.000000,,2013-05-17 07:02:00,
2013-05-17 00:11:00,44.0,34.0,-100.00,WNW,283,40.0,46.0,68,0.00,,,0.00,0.000000,,2013-05-17 07:11:00,
2013-05-17 00:21:00,44.0,34.0,-100.00,WNW,283,40.0,46.0,68,0.00,,,0.00,0.000000,,2013-05-17 07:21:00,
2013-05-17 00:53:00,46.0,36.0,-100.00,West,275,35.0,58.0,69,0.00,,,0.00,0.000000,,2013-05-17 07:53:00,
2013-05-17 01:02:00,46.0,36.0,-100.00,West,275,35.0,58.0,69,0.00,,,0.00,0.000000,,2013-05-17 08:02:00,
2013-05-17 01:12:00,46.0,36.0,-100.00,West,275,35.0,58.0,69,0.00,,,0.00,0.000000,,2013-05-17 08:12:00,
2013-05-17 01:22:00,46.0,36.0,-100.00,West,275,35.0,58.0,69,0.00,,,0.00,0.000000,,2013-05-17 08:22:00,
2013-05-17 01:52:00,44.0,37.0,-100.00,West,281,36.0,65.0,76,0.00,,,0.00,0.000000,,2013-05-17 08:52:00,
2013-05-17 02:02:00,44.0,37.0,-100.00,West,281,36.0,65.0,76,0.00,,,0.00,0.000000,,2013-05-17 09:02:00,
2013-05-17 02:12:00,44.0,37.0,-100.00,West,281,36.0,65.0,76,0.00,,,0.00,0.000000,,2013-05-17 09:12:00,
2013-05-17 02:22:00,44.0,37.0,-100.00,West,281,36.0,65.0,76,0.00,,,0.00,0.000000,,2013-05-17 09:22:00,
2013-05-17 02:53:00,43.0,37.0,-100.00,West,277,34.0,64.0,80,0.00,,,0.00,0.000000,,2013-05-17 09:53:00,
2013-05-17 03:03:00,43.0,37.0,-100.00,West,277,34.0,64.0,80,0.00,,,0.00,0.000000,,2013-05-17 10:03:00,
2013-05-17 03:12:00,43.0,37.0,-100.00,West,277,34.0,64.0,80,0.00,,,0.00,0.000000,,2013-05-17 10:12:00,
2013-05-17 03:23:00,43.0,37.0,-100.00,West,277,34.0,64.0,80,0.00,,,0.00,0.000000,,2013-05-17 10:23:00,
2013-05-17 03:54:00,42.0,35.0,-100.00,West,278,35.0,62.0,76,0.00,,,0.00,0.000000,,2013-05-17 10:54:00,
2013-05-17 04:02:00,42.0,35.0,-100.00,West,278,35.0,62.0,76,0.00,,,0.00,0.000000,,2013-05-17 11:02:00,
2013-05-17 04:12:00,42.0,35.0,-100.00,West,278,35.0,62.0,76,0.00,,,0.00,0.000000,,2013-05-17 11:12:00,
2013-05-17 04:22:00,42.0,35.0,-100.00,West,278,35.0,62.0,76,0.00,,,0.00,0.000000,,2013-05-17 11:22:00,
2013-05-17 04:53:00,43.0,37.0,-100.00,WNW,283,20.0,64.0,78,0.00,,,0.00,0.000000,,2013-05-17 11:53:00,
2013-05-17 05:02:00,43.0,37.0,-100.00,WNW,283,20.0,64.0,78,0.00,,,0.00,0.000000,,2013-05-17 12:02:00,
2013-05-17 05:12:00,43.0,37.0,-100.00,WNW,283,20.0,64.0,78,0.00,,,0.00,0.000000,,2013-05-17 12:12:00,
2013-05-17 05:23:00,43.0,37.0,-100.00,WNW,283,20.0,64.0,78,0.00,,,0.00,0.000000,,2013-05-17 12:23:00,
2013-05-17 05:53:00,42.0,36.0,-100.00,NW,311,19.0,58.0,79,0.00,,,0.00,0.000000,,2013-05-17 12:53:00,
2013-05-17 06:03:00,42.0,36.0,-100.00,NW,311,19.0,58.0,79,0.00,,,0.00,0.000000,,2013-05-17 13:03:00,
2013-05-17 06:12:00,42.0,36.0,-100.00,NW,311,19.0,58.0,79,0.00,,,0.00,0.000000,,2013-05-17 13:12:00,
2013-05-17 06:23:00,42.0,36.0,-100.00,NW,311,19.0,58.0,79,0.00,,,0.00,0.000000,,2013-05-17 13:23:00,
2013-05-17 06:52:00,42.0,36.0,-100.00,WNW,288,21.0,43.0,79,0.00,,,0.00,0.000000,,2013-05-17 13:52:00,
2013-05-17 07:02:00,42.0,36.0,-100.00,WNW,288,21.0,43.0,79,0.00,,,0.00,0.000000,,2013-05-17 14:02:00,
2013-05-17 07:12:00,42.0,36.0,-100.00,WNW,288,21.0,43.0,79,0.00,,,0.00,0.000000,,2013-05-17 14:12:00,
2013-05-17 07:22:00,42.0,36.0,-100.00,WNW,288,21.0,43.0,79,0.00,,,0.00,0.000000,,2013-05-17 14:22:00,
2013-05-17 07:53:00,42.0,34.0,-100.00,NW,322,27.0,40.0,74,0.00,,,0.00,32.000000,,2013-05-17 14:53:00,
2013-05-17 08:03:00,42.0,34.0,-100.00,NW,322,27.0,40.0,74,0.00,,,0.00,32.000000,,2013-05-17 15:03:00,
2013-05-17 08:13:00,42.0,34.0,-100.00,NW,322,27.0,40.0,74,0.00,,,0.00,32.000000,,2013-05-17 15:13:00,
2013-05-17 08:25:00,42.0,34.0,-100.00,NW,322,27.0,40.0,74,0.00,,,0.00,32.000000,,2013-05-17 15:25:00,
2013-05-17 08:57:00,45.0,38.0,-100.00,NW,310,25.0,39.0,75,0.00,,,0.00,341.000000,,2013-05-17 15:57:00,
2013-05-17 09:07:00,45.0,38.0,-100.00,NW,310,25.0,39.0,75,0.00,,,0.00,341.000000,,2013-05-17 16:07:00,
2013-05-17 09:13:00,45.0,38.0,-100.00,NW,310,25.0,39.0,75,0.00,,,0.00,341.000000,,2013-05-17 16:13:00,
2013-05-17 09:26:00,45.0,38.0,-100.00,NW,310,25.0,39.0,75,0.00,,,0.00,341.000000,,2013-05-17 16:26:00,
2013-05-17 09:27:00,45.0,36.0,-100.00,NW,312,24.0,40.0,70,0.00,,,0.00,415.000000,,2013-05-17 16:27:00,
2013-05-17 09:56:00,45.0,36.0,-100.00,NW,312,24.0,40.0,70,0.00,,,0.00,415.000000,,2013-05-17 16:56:00,
2013-05-17 10:08:00,45.0,36.0,-100.00,NW,312,24.0,40.0,70,0.00,,,0.00,415.000000,,2013-05-17 17:08:00,
2013-05-17 10:18:00,45.0,36.0,-100.00,NW,312,24.0,40.0,70,0.00,,,0.00,415.000000,,2013-05-17 17:18:00,
2013-05-17 10:27:00,47.0,34.0,-100.00,NW,313,19.0,38.0,60,0.00,,,0.00,722.000000,,2013-05-17 17:27:00,
2013-05-17 11:00:00,47.0,34.0,-100.00,NW,313,19.0,38.0,60,0.00,,,0.00,722.000000,,2013-05-17 18:00:00,
2013-05-17 11:08:00,47.0,34.0,-100.00,NW,313,19.0,38.0,60,0.00,,,0.00,722.000000,,2013-05-17 18:08:00,
2013-05-17 11:20:00,47.0,34.0,-100.00,NW,313,19.0,38.0,60,0.00,,,0.00,722.000000,,2013-05-17 18:20:00,
2013-05-17 11:27:00,50.0,35.0,-100.00,NW,313,20.0,36.0,57,0.00,,,0.00,1004.000000,,2013-05-17 18:27:00,
2013-05-17 12:00:00,50.0,35.0,-100.00,NW,313,20.0,36.0,57,0.00,,,0.00,1004.000000,,2013-05-17 19:00:00,
2013-05-17 12:10:00,50.0,35.0,-100.00,NW,313,20.0,36.0,57,0.00,,,0.00,1004.000000,,2013-05-17 19:10:00,
2013-05-17 12:20:00,50.0,35.0,-100.00,NW,313,20.0,36.0,57,0.00,,,0.00,1004.000000,,2013-05-17 19:20:00,
2013-05-17 12:27:00,52.0,36.0,-100.00,NW,324,15.0,38.0,54,0.00,,,-99.99,1169.000000,,2013-05-17 19:27:00,
2013-05-17 13:00:00,52.0,-99.9,-100.00,NW,324,15.0,38.0,54,0.00,,,-99.99,1169.000000,,2013-05-17 20:00:00,
2013-05-17 13:09:00,52.0,36.0,-100.00,NW,324,15.0,38.0,54,0.00,,,-99.99,1169.000000,,2013-05-17 20:09:00,
2013-05-17 13:20:00,52.0,36.0,-100.00,NW,324,15.0,38.0,54,0.00,,,-99.99,1169.000000,,2013-05-17 20:20:00,
2013-05-17 13:58:00,54.0,37.0,-100.00,NW,322,20.0,32.0,52,0.00,,,0.00,1266.000000,,2013-05-17 20:58:00,
2013-05-17 14:07:00,54.0,37.0,-100.00,NW,322,20.0,32.0,52,0.00,,,0.00,1266.000000,,2013-05-17 21:07:00,
2013-05-17 14:16:00,54.0,37.0,-100.00,NW,322,20.0,32.0,52,0.00,,,0.00,1266.000000,,2013-05-17 21:16:00,
2013-05-17 14:25:00,54.0,37.0,-100.00,NW,322,20.0,32.0,52,0.00,,,0.00,1266.000000,,2013-05-17 21:25:00,
2013-05-17 14:27:00,55.0,36.0,-100.00,WNW,296,18.0,33.0,48,0.00,,,0.00,1290.000000,,2013-05-17 21:27:00,
2013-05-17 14:58:00,55.0,36.0,-100.00,WNW,296,18.0,33.0,48,0.00,,,0.00,1290.000000,,2013-05-17 21:58:00,
2013-05-17 15:06:00,55.0,36.0,-100.00,WNW,296,18.0,33.0,48,0.00,,,0.00,1290.000000,,2013-05-17 22:06:00,
2013-05-17 15:17:00,55.0,36.0,-100.00,WNW,296,18.0,33.0,48,0.00,,,0.00,1290.000000,,2013-05-17 22:17:00,
2013-05-17 15:55:00,55.0,36.0,-100.00,WNW,289,19.0,37.0,48,0.00,,,0.00,1249.000000,,2013-05-17 22:55:00,
2013-05-17 16:04:00,55.0,36.0,-100.00,WNW,289,19.0,37.0,48,0.00,,,0.00,1249.000000,,2013-05-17 23:04:00,
2013-05-17 16:13:00,55.0,36.0,-100.00,WNW,289,19.0,37.0,48,0.00,,,0.00,1249.000000,,2013-05-17 23:13:00,
2013-05-17 16:23:00,55.0,36.0,-100.00,WNW,289,19.0,37.0,48,0.00,,,0.00,1249.000000,,2013-05-17 23:23:00,
2013-05-17 16:54:00,56.0,37.0,-100.00,West,266,20.0,41.0,49,0.00,,,0.00,1128.000000,,2013-05-17 23:54:00,
2013-05-17 17:02:00,56.0,37.0,-100.00,West,266,20.0,41.0,49,0.00,,,0.00,1128.000000,,2013-05-18 00:02:00,
2013-05-17 17:14:00,56.0,37.0,-100.00,West,266,20.0,41.0,49,0.00,,,0.00,1128.000000,,2013-05-18 00:14:00,
2013-05-17 17:21:00,56.0,37.0,-100.00,West,266,20.0,41.0,49,0.00,,,0.00,1128.000000,,2013-05-18 00:21:00,
2013-05-17 17:54:00,54.0,35.0,-100.00,WNW,286,25.0,40.0,49,0.00,,,0.00,939.000000,,2013-05-18 00:54:00,
2013-05-17 18:02:00,54.0,35.0,-100.00,WNW,286,25.0,40.0,49,0.00,,,0.00,939.000000,,2013-05-18 01:02:00,
2013-05-17 18:13:00,54.0,35.0,-100.00,WNW,286,25.0,40.0,49,0.00,,,0.00,939.000000,,2013-05-18 01:13:00,
2013-05-17 18:24:00,54.0,35.0,-100.00,WNW,286,25.0,40.0,49,0.00,,,0.00,939.000000,,2013-05-18 01:24:00,
2013-05-17 18:52:00,53.0,36.0,-100.00,West,277,25.0,51.0,52,0.00,,,-99.99,698.000000,,2013-05-18 01:52:00,
2013-05-17 19:02:00,53.0,36.0,-100.00,West,277,25.0,51.0,52,0.00,,,-99.99,698.000000,,2013-05-18 02:02:00,
2013-05-17 19:11:00,53.0,36.0,-100.00,West,277,25.0,51.0,52,0.00,,,-99.99,698.000000,,2013-05-18 02:11:00,
2013-05-17 19:22:00,53.0,36.0,-100.00,West,277,25.0,51.0,52,0.00,,,-99.99,698.000000,,2013-05-18 02:22:00,
2013-05-17 19:53:00,51.0,37.0,-100.00,West,280,32.0,45.0,58,0.00,,,0.00,267.000000,,2013-05-18 02:53:00,
2013-05-17 20:02:00,51.0,37.0,-100.00,West,280,32.0,45.0,58,0.00,,,0.00,267.000000,,2013-05-18 03:02:00,
2013-05-17 20:12:00,51.0,37.0,-100.00,West,280,32.0,45.0,58,0.00,,,0.00,267.000000,,2013-05-18 03:12:00,
2013-05-17 20:22:00,51.0,37.0,-100.00,West,280,32.0,45.0,58,0.00,,,0.00,267.000000,,2013-05-18 03:22:00,
2013-05-17 20:53:00,48.0,36.0,-100.00,WNW,283,28.0,44.0,63,-99.99,,,0.00,59.000000,,2013-05-18 03:53:00,
2013-05-17 21:02:00,48.0,36.0,-100.00,WNW,283,28.0,44.0,63,-99.99,,,0.00,59.000000,,2013-05-18 04:02:00,
2013-05-17 21:12:00,48.0,36.0,-100.00,WNW,283,28.0,44.0,63,-99.99,,,0.00,59.000000,,2013-05-18 04:12:00,
2013-05-17 21:22:00,48.0,36.0,-100.00,WNW,283,28.0,44.0,63,-99.99,,,0.00,59.000000,,2013-05-18 04:22:00,
2013-05-17 21:52:00,46.0,35.0,-100.00,WNW,283,25.0,45.0,66,0.00,,,0.00,10.000000,,2013-05-18 04:52:00,
2013-05-17 22:02:00,46.0,35.0,-100.00,WNW,283,25.0,45.0,66,0.00,,,0.00,10.000000,,2013-05-18 05:02:00,
2013-05-17 22:12:00,46.0,35.0,-100.00,WNW,283,25.0,45.0,66,0.00,,,0.00,10.000000,,2013-05-18 05:12:00,
2013-05-17 22:22:00,46.0,35.0,-100.00,WNW,283,25.0,45.0,66,0.00,,,0.00,10.000000,,2013-05-18 05:22:00,
2013-05-17 22:52:00,45.0,35.0,-100.00,WNW,295,20.0,50.0,67,0.00,,,0.00,0.000000,,2013-05-18 05:52:00,
2013-05-17 23:02:00,45.0,35.0,-100.00,WNW,295,20.0,50.0,67,0.00,,,0.00,0.000000,,2013-05-18 06:02:00,
2013-05-17 23:11:00,45.0,35.0,-100.00,WNW,295,20.0,50.0,67,0.00,,,0.00,0.000000,,2013-05-18 06:11:00,
2013-05-17 23:22:00,45.0,35.0,-100.00,WNW,295,20.0,50.0,67,0.00,,,0.00,0.000000,,2013-05-18 06:22:00,
2013-05-17 23:52:00,46.0,34.0,-100.00,WNW,301,25.0,42.0,63,0.00,,,0.00,0.000000,,2013-05-18 06:52:00,